KBIL

Billings Logan International Airport

Billings, Montana, USA
METAR KBIL 230753Z 24004KT 10SM FEW130 M16/M18 A3015 RMK AO2 SLP280 T11561183
Observed Flight Rules
Feb-23 @ 07:53 UTC (30 minutes ago) Visual Flight Rules
Wind Visibility Clouds
240° at 4 knots 10 miles
  • Few at 13,000' AGL
Temperatures Readings
Current -16°C / 3°F
Dewpoint -18°C / -0°F
Humidity 85%
Altimeter 30.15" Hg
Pressure 1028 hPa
Elevation 1091
METAR KBIL 230753Z 24004KT 10SM FEW130 M16/M18 A3015 RMK AO2 SLP280 T11561183
Observed Flight Rules
Feb-23 @ 07:53 UTC
(30 minutes ago)
VFR
Wind Visibility
240° at 4 knots 10 miles
Clouds
  • Few at 13,000' AGL
Temperature Dewpoint
-16°C / 3°F -18°C / -0°F
Humidity Altimeter Pressure
85% 30.15" Hg 1028 hPa